NCAR-RAP Real-Time Weather Data

Output produced by METARs form (06 May 2021  16:41 UTC)
found at http://weather.rap.ucar.edu/surface/
 
KSJC 061553Z 00000KT 10SM FEW015 14/08 A3006 RMK AO2 SLP179 T01440083
KSJC 061453Z 00000KT 8SM FEW007 FEW010 13/09 A3006 RMK AO2 SLP179 T01330089 53016
KSJC 061353Z 00000KT 7SM FEW007 SCT010 12/09 A3004 RMK AO2 SLP173 T01170089
KSJC 061253Z 35005KT 9SM FEW007 11/09 A3002 RMK AO2 SLP166 T01110089
KSJC 061153Z AUTO 00000KT 10SM CLR 11/08 A3001 RMK AO2 SLP163 T01110083 10128 20111 58003
KSJC 061053Z AUTO 00000KT 10SM SCT011 12/08 A3002 RMK AO2 SLP165 T01170083
KSJC 060953Z AUTO 00000KT 10SM OVC010 12/09 A3002 RMK AO2 SLP166 T01220089
KSJC 060853Z AUTO 35006KT 10SM OVC011 12/09 A3002 RMK AO2 SLP166 T01220094 50003
KSJC 060753Z AUTO 35007KT 10SM OVC012 12/09 A3003 RMK AO2 SLP167 T01220094 402830117
KSJC 060744Z AUTO 34007KT 10SM BKN012 12/09 A3003 RMK AO2 T01220094
KSJC 060653Z 32006KT 10SM FEW004 FEW015 12/09 A3002 RMK AO2 SLP164 LAST T01220089
KSJC 060553Z 31003KT 10SM FEW004 12/09 A3001 RMK AO2 SLP163 T01220089 10256 20122 51029
KSJC 060453Z 31005KT 10SM FEW004 13/09 A3001 RMK AO2 SLP160 T01330094
KSJC 060353Z 32008KT 10SM FEW008 14/10 A2998 RMK AO2 SLP150 T01390100